sensor_id;sensor_type;location;lat;lon;timestamp;temperature;humidity
15394;DHT22;7795;47.986;11.868;2024-01-27T00:01:46;7.40;76.90
15394;DHT22;7795;47.986;11.868;2024-01-27T00:04:12;7.40;76.90
15394;DHT22;7795;47.986;11.868;2024-01-27T00:06:37;7.40;77.00
15394;DHT22;7795;47.986;11.868;2024-01-27T00:09:03;7.40;77.00
15394;DHT22;7795;47.986;11.868;2024-01-27T00:11:31;7.40;77.10
15394;DHT22;7795;47.986;11.868;2024-01-27T00:13:57;7.40;77.10
15394;DHT22;7795;47.986;11.868;2024-01-27T00:16:24;7.40;77.10
15394;DHT22;7795;47.986;11.868;2024-01-27T00:18:51;7.40;77.10
15394;DHT22;7795;47.986;11.868;2024-01-27T00:21:17;7.40;77.00
15394;DHT22;7795;47.986;11.868;2024-01-27T00:23:43;7.40;76.80
15394;DHT22;7795;47.986;11.868;2024-01-27T00:26:09;7.40;76.70
15394;DHT22;7795;47.986;11.868;2024-01-27T00:28:34;7.40;76.60
15394;DHT22;7795;47.986;11.868;2024-01-27T00:31:00;7.40;76.60
15394;DHT22;7795;47.986;11.868;2024-01-27T00:33:26;7.40;76.70
15394;DHT22;7795;47.986;11.868;2024-01-27T00:35:53;7.40;76.80
15394;DHT22;7795;47.986;11.868;2024-01-27T00:38:19;7.40;76.70
15394;DHT22;7795;47.986;11.868;2024-01-27T00:40:45;7.50;76.70
15394;DHT22;7795;47.986;11.868;2024-01-27T00:43:11;7.50;76.70
15394;DHT22;7795;47.986;11.868;2024-01-27T00:45:37;7.50;76.70
15394;DHT22;7795;47.986;11.868;2024-01-27T00:48:03;7.50;76.60
15394;DHT22;7795;47.986;11.868;2024-01-27T00:50:28;7.50;76.70
15394;DHT22;7795;47.986;11.868;2024-01-27T00:52:55;7.50;76.70
15394;DHT22;7795;47.986;11.868;2024-01-27T00:55:21;7.60;76.60
15394;DHT22;7795;47.986;11.868;2024-01-27T00:57:47;7.50;76.50
15394;DHT22;7795;47.986;11.868;2024-01-27T01:00:13;7.60;77.30
15394;DHT22;7795;47.986;11.868;2024-01-27T01:02:39;7.50;76.40
15394;DHT22;7795;47.986;11.868;2024-01-27T01:05:07;7.50;76.20
15394;DHT22;7795;47.986;11.868;2024-01-27T01:07:33;7.50;76.10
15394;DHT22;7795;47.986;11.868;2024-01-27T01:10:01;7.50;76.00
15394;DHT22;7795;47.986;11.868;2024-01-27T01:12:27;7.50;75.90
15394;DHT22;7795;47.986;11.868;2024-01-27T01:14:53;7.50;76.00
15394;DHT22;7795;47.986;11.868;2024-01-27T01:17:18;7.40;75.90
15394;DHT22;7795;47.986;11.868;2024-01-27T01:19:44;7.40;76.00
15394;DHT22;7795;47.986;11.868;2024-01-27T01:22:10;7.40;76.00
15394;DHT22;7795;47.986;11.868;2024-01-27T01:24:36;7.40;76.00
15394;DHT22;7795;47.986;11.868;2024-01-27T01:27:03;7.40;76.00
15394;DHT22;7795;47.986;11.868;2024-01-27T01:29:29;7.30;75.80
15394;DHT22;7795;47.986;11.868;2024-01-27T01:31:55;7.30;75.90
15394;DHT22;7795;47.986;11.868;2024-01-27T01:34:21;7.30;76.60
15394;DHT22;7795;47.986;11.868;2024-01-27T01:36:46;7.30;75.90
15394;DHT22;7795;47.986;11.868;2024-01-27T01:39:13;7.30;76.00
15394;DHT22;7795;47.986;11.868;2024-01-27T01:41:39;7.30;76.00
15394;DHT22;7795;47.986;11.868;2024-01-27T01:44:06;7.30;76.10
15394;DHT22;7795;47.986;11.868;2024-01-27T01:46:32;7.20;76.10
15394;DHT22;7795;47.986;11.868;2024-01-27T01:48:58;7.20;76.20
15394;DHT22;7795;47.986;11.868;2024-01-27T01:51:26;7.20;76.20
15394;DHT22;7795;47.986;11.868;2024-01-27T01:53:52;7.20;76.30
15394;DHT22;7795;47.986;11.868;2024-01-27T01:56:20;7.20;76.30
15394;DHT22;7795;47.986;11.868;2024-01-27T01:58:46;7.10;76.30
15394;DHT22;7795;47.986;11.868;2024-01-27T02:01:13;7.10;76.40
15394;DHT22;7795;47.986;11.868;2024-01-27T02:03:38;7.10;76.50
15394;DHT22;7795;47.986;11.868;2024-01-27T02:06:05;7.10;76.50
15394;DHT22;7795;47.986;11.868;2024-01-27T02:08:31;7.10;76.60
15394;DHT22;7795;47.986;11.868;2024-01-27T02:10:57;7.00;76.70
15394;DHT22;7795;47.986;11.868;2024-01-27T02:13:23;7.00;76.70
15394;DHT22;7795;47.986;11.868;2024-01-27T02:15:50;7.00;76.70
15394;DHT22;7795;47.986;11.868;2024-01-27T02:18:17;7.00;76.80
15394;DHT22;7795;47.986;11.868;2024-01-27T02:20:43;7.00;76.90
15394;DHT22;7795;47.986;11.868;2024-01-27T02:23:09;7.00;77.00
15394;DHT22;7795;47.986;11.868;2024-01-27T02:25:36;7.00;77.00
15394;DHT22;7795;47.986;11.868;2024-01-27T02:28:02;7.00;76.90
15394;DHT22;7795;47.986;11.868;2024-01-27T02:30:28;7.00;76.80
15394;DHT22;7795;47.986;11.868;2024-01-27T02:32:56;7.00;76.70
15394;DHT22;7795;47.986;11.868;2024-01-27T02:35:23;7.00;76.80
15394;DHT22;7795;47.986;11.868;2024-01-27T02:37:49;6.90;76.70
15394;DHT22;7795;47.986;11.868;2024-01-27T02:40:15;6.90;76.70
15394;DHT22;7795;47.986;11.868;2024-01-27T02:42:42;6.90;76.70
15394;DHT22;7795;47.986;11.868;2024-01-27T02:45:09;6.90;77.40
15394;DHT22;7795;47.986;11.868;2024-01-27T02:47:35;6.90;76.70
15394;DHT22;7795;47.986;11.868;2024-01-27T02:50:01;6.90;76.70
15394;DHT22;7795;47.986;11.868;2024-01-27T02:52:26;6.90;76.70
15394;DHT22;7795;47.986;11.868;2024-01-27T02:54:53;6.90;76.70
15394;DHT22;7795;47.986;11.868;2024-01-27T02:57:19;6.90;76.70
15394;DHT22;7795;47.986;11.868;2024-01-27T02:59:46;6.90;76.80
15394;DHT22;7795;47.986;11.868;2024-01-27T03:02:12;6.90;76.90
15394;DHT22;7795;47.986;11.868;2024-01-27T03:04:38;6.90;76.80
15394;DHT22;7795;47.986;11.868;2024-01-27T03:07:04;6.90;76.80
15394;DHT22;7795;47.986;11.868;2024-01-27T03:09:30;6.90;76.80
15394;DHT22;7795;47.986;11.868;2024-01-27T03:11:56;6.90;76.80
15394;DHT22;7795;47.986;11.868;2024-01-27T03:14:22;6.90;76.70
15394;DHT22;7795;47.986;11.868;2024-01-27T03:16:49;7.00;76.70
15394;DHT22;7795;47.986;11.868;2024-01-27T03:19:14;6.90;76.60
15394;DHT22;7795;47.986;11.868;2024-01-27T03:21:40;6.90;76.40
15394;DHT22;7795;47.986;11.868;2024-01-27T03:24:06;6.90;76.40
15394;DHT22;7795;47.986;11.868;2024-01-27T03:26:32;6.90;76.40
15394;DHT22;7795;47.986;11.868;2024-01-27T03:28:57;6.90;76.50
15394;DHT22;7795;47.986;11.868;2024-01-27T03:31:23;6.90;76.60
15394;DHT22;7795;47.986;11.868;2024-01-27T03:33:50;6.90;76.60
15394;DHT22;7795;47.986;11.868;2024-01-27T03:36:16;6.90;76.60
15394;DHT22;7795;47.986;11.868;2024-01-27T03:38:42;6.90;76.50
15394;DHT22;7795;47.986;11.868;2024-01-27T03:41:08;6.90;76.50
15394;DHT22;7795;47.986;11.868;2024-01-27T03:43:34;6.90;76.50
15394;DHT22;7795;47.986;11.868;2024-01-27T03:45:59;6.90;76.50
15394;DHT22;7795;47.986;11.868;2024-01-27T03:48:26;6.90;76.60
15394;DHT22;7795;47.986;11.868;2024-01-27T03:50:53;6.90;76.50
15394;DHT22;7795;47.986;11.868;2024-01-27T03:53:18;6.90;76.40
15394;DHT22;7795;47.986;11.868;2024-01-27T03:55:44;6.90;76.40
15394;DHT22;7795;47.986;11.868;2024-01-27T03:58:10;6.80;76.30
15394;DHT22;7795;47.986;11.868;2024-01-27T04:00:35;6.80;76.40
15394;DHT22;7795;47.986;11.868;2024-01-27T04:03:01;6.80;76.40
15394;DHT22;7795;47.986;11.868;2024-01-27T04:05:28;6.80;76.40
15394;DHT22;7795;47.986;11.868;2024-01-27T04:07:56;6.80;76.40
15394;DHT22;7795;47.986;11.868;2024-01-27T04:10:22;6.80;76.30
15394;DHT22;7795;47.986;11.868;2024-01-27T04:12:48;6.70;76.30
15394;DHT22;7795;47.986;11.868;2024-01-27T04:15:13;6.70;76.30
15394;DHT22;7795;47.986;11.868;2024-01-27T04:17:39;6.70;76.40
15394;DHT22;7795;47.986;11.868;2024-01-27T04:20:06;6.60;76.40
15394;DHT22;7795;47.986;11.868;2024-01-27T04:22:32;6.60;76.60
15394;DHT22;7795;47.986;11.868;2024-01-27T04:25:00;6.60;76.60
15394;DHT22;7795;47.986;11.868;2024-01-27T04:27:27;6.60;76.70
15394;DHT22;7795;47.986;11.868;2024-01-27T04:29:52;6.50;76.80
15394;DHT22;7795;47.986;11.868;2024-01-27T04:32:18;6.50;76.90
15394;DHT22;7795;47.986;11.868;2024-01-27T04:34:44;6.50;76.90
15394;DHT22;7795;47.986;11.868;2024-01-27T04:37:10;6.50;77.00
15394;DHT22;7795;47.986;11.868;2024-01-27T04:39:35;6.40;77.00
15394;DHT22;7795;47.986;11.868;2024-01-27T04:42:03;6.40;76.90
15394;DHT22;7795;47.986;11.868;2024-01-27T04:44:28;6.40;76.90
15394;DHT22;7795;47.986;11.868;2024-01-27T04:46:54;6.40;76.90
15394;DHT22;7795;47.986;11.868;2024-01-27T04:49:20;6.40;76.90
15394;DHT22;7795;47.986;11.868;2024-01-27T04:51:45;6.30;76.80
15394;DHT22;7795;47.986;11.868;2024-01-27T04:54:11;6.30;76.80
15394;DHT22;7795;47.986;11.868;2024-01-27T04:56:37;6.30;76.90
15394;DHT22;7795;47.986;11.868;2024-01-27T04:59:04;6.30;77.00
15394;DHT22;7795;47.986;11.868;2024-01-27T05:01:31;6.30;77.10
15394;DHT22;7795;47.986;11.868;2024-01-27T05:03:57;6.20;78.00
15394;DHT22;7795;47.986;11.868;2024-01-27T05:06:23;6.20;77.20
15394;DHT22;7795;47.986;11.868;2024-01-27T05:08:48;6.20;77.30
15394;DHT22;7795;47.986;11.868;2024-01-27T05:11:15;6.20;77.30
15394;DHT22;7795;47.986;11.868;2024-01-27T05:13:41;6.20;77.30
15394;DHT22;7795;47.986;11.868;2024-01-27T05:16:08;6.20;77.20
15394;DHT22;7795;47.986;11.868;2024-01-27T05:18:34;6.20;77.20
15394;DHT22;7795;47.986;11.868;2024-01-27T05:21:00;6.10;77.10
15394;DHT22;7795;47.986;11.868;2024-01-27T05:23:26;6.10;77.10
15394;DHT22;7795;47.986;11.868;2024-01-27T05:25:51;6.10;77.00
15394;DHT22;7795;47.986;11.868;2024-01-27T05:28:17;6.10;77.00
15394;DHT22;7795;47.986;11.868;2024-01-27T05:30:43;6.00;76.90
15394;DHT22;7795;47.986;11.868;2024-01-27T05:33:10;6.00;77.00
15394;DHT22;7795;47.986;11.868;2024-01-27T05:35:36;6.00;77.10
15394;DHT22;7795;47.986;11.868;2024-01-27T05:38:02;5.90;77.10
15394;DHT22;7795;47.986;11.868;2024-01-27T05:40:28;5.90;77.10
15394;DHT22;7795;47.986;11.868;2024-01-27T05:42:53;5.90;77.10
15394;DHT22;7795;47.986;11.868;2024-01-27T05:45:20;5.80;77.00
15394;DHT22;7795;47.986;11.868;2024-01-27T05:47:45;5.80;77.60
15394;DHT22;7795;47.986;11.868;2024-01-27T05:50:13;5.80;76.90
15394;DHT22;7795;47.986;11.868;2024-01-27T05:52:38;5.70;76.80
15394;DHT22;7795;47.986;11.868;2024-01-27T05:55:05;5.70;76.90
15394;DHT22;7795;47.986;11.868;2024-01-27T05:57:32;5.60;76.90
15394;DHT22;7795;47.986;11.868;2024-01-27T05:59:58;5.60;76.90
15394;DHT22;7795;47.986;11.868;2024-01-27T06:02:23;5.60;76.90
15394;DHT22;7795;47.986;11.868;2024-01-27T06:04:49;5.50;76.90
15394;DHT22;7795;47.986;11.868;2024-01-27T06:07:16;5.50;77.00
15394;DHT22;7795;47.986;11.868;2024-01-27T06:09:42;5.40;76.90
15394;DHT22;7795;47.986;11.868;2024-01-27T06:12:08;5.40;77.00
15394;DHT22;7795;47.986;11.868;2024-01-27T06:14:33;5.30;77.80
15394;DHT22;7795;47.986;11.868;2024-01-27T06:16:59;5.30;77.10
15394;DHT22;7795;47.986;11.868;2024-01-27T06:19:25;5.30;77.10
15394;DHT22;7795;47.986;11.868;2024-01-27T06:21:51;5.20;77.10
15394;DHT22;7795;47.986;11.868;2024-01-27T06:24:18;5.20;77.10
15394;DHT22;7795;47.986;11.868;2024-01-27T06:26:44;5.20;77.20
15394;DHT22;7795;47.986;11.868;2024-01-27T06:29:09;5.10;77.20
15394;DHT22;7795;47.986;11.868;2024-01-27T06:31:35;5.10;77.30
15394;DHT22;7795;47.986;11.868;2024-01-27T06:34:01;5.00;77.40
15394;DHT22;7795;47.986;11.868;2024-01-27T06:36:26;5.00;77.40
15394;DHT22;7795;47.986;11.868;2024-01-27T06:38:52;5.00;77.50
15394;DHT22;7795;47.986;11.868;2024-01-27T06:41:19;4.90;77.50
15394;DHT22;7795;47.986;11.868;2024-01-27T06:43:45;4.90;77.50
15394;DHT22;7795;47.986;11.868;2024-01-27T06:46:11;4.90;77.60
15394;DHT22;7795;47.986;11.868;2024-01-27T06:48:37;4.90;77.60
15394;DHT22;7795;47.986;11.868;2024-01-27T06:53:30;4.80;77.60
15394;DHT22;7795;47.986;11.868;2024-01-27T06:55:56;4.80;77.60
15394;DHT22;7795;47.986;11.868;2024-01-27T06:58:23;4.80;77.70
15394;DHT22;7795;47.986;11.868;2024-01-27T07:00:49;4.80;77.60
15394;DHT22;7795;47.986;11.868;2024-01-27T07:03:15;4.70;77.60
15394;DHT22;7795;47.986;11.868;2024-01-27T07:05:40;4.70;77.60
15394;DHT22;7795;47.986;11.868;2024-01-27T07:08:07;4.70;77.70
15394;DHT22;7795;47.986;11.868;2024-01-27T07:10:32;4.60;77.70
15394;DHT22;7795;47.986;11.868;2024-01-27T07:12:58;4.60;77.80
15394;DHT22;7795;47.986;11.868;2024-01-27T07:15:25;4.50;77.80
15394;DHT22;7795;47.986;11.868;2024-01-27T07:17:52;4.50;77.80
15394;DHT22;7795;47.986;11.868;2024-01-27T07:20:18;4.50;77.80
15394;DHT22;7795;47.986;11.868;2024-01-27T07:22:44;4.50;77.90
15394;DHT22;7795;47.986;11.868;2024-01-27T07:25:10;4.40;77.90
15394;DHT22;7795;47.986;11.868;2024-01-27T07:27:36;4.40;78.00
15394;DHT22;7795;47.986;11.868;2024-01-27T07:30:02;4.40;78.10
15394;DHT22;7795;47.986;11.868;2024-01-27T07:32:29;4.40;78.20
15394;DHT22;7795;47.986;11.868;2024-01-27T07:34:55;4.40;78.40
15394;DHT22;7795;47.986;11.868;2024-01-27T07:37:21;4.40;78.50
15394;DHT22;7795;47.986;11.868;2024-01-27T07:39:46;4.40;78.50
15394;DHT22;7795;47.986;11.868;2024-01-27T07:42:14;4.40;78.50
15394;DHT22;7795;47.986;11.868;2024-01-27T07:44:40;4.40;78.50
15394;DHT22;7795;47.986;11.868;2024-01-27T07:47:08;4.40;78.50
15394;DHT22;7795;47.986;11.868;2024-01-27T07:49:36;4.40;78.50
15394;DHT22;7795;47.986;11.868;2024-01-27T07:52:01;4.40;78.70
15394;DHT22;7795;47.986;11.868;2024-01-27T07:54:27;4.40;78.70
15394;DHT22;7795;47.986;11.868;2024-01-27T07:56:53;4.40;78.80
15394;DHT22;7795;47.986;11.868;2024-01-27T07:59:19;4.40;78.90
15394;DHT22;7795;47.986;11.868;2024-01-27T08:01:45;4.40;78.90
15394;DHT22;7795;47.986;11.868;2024-01-27T08:04:10;4.40;78.90
15394;DHT22;7795;47.986;11.868;2024-01-27T08:06:47;4.40;79.10
15394;DHT22;7795;47.986;11.868;2024-01-27T08:09:13;4.50;79.40
15394;DHT22;7795;47.986;11.868;2024-01-27T08:11:39;4.50;79.20
15394;DHT22;7795;47.986;11.868;2024-01-27T08:14:04;4.60;79.40
15394;DHT22;7795;47.986;11.868;2024-01-27T08:16:30;4.60;79.40
15394;DHT22;7795;47.986;11.868;2024-01-27T08:18:56;4.60;79.50
15394;DHT22;7795;47.986;11.868;2024-01-27T08:21:22;4.70;79.60
15394;DHT22;7795;47.986;11.868;2024-01-27T08:23:49;4.70;79.70
15394;DHT22;7795;47.986;11.868;2024-01-27T08:26:15;4.80;79.80
15394;DHT22;7795;47.986;11.868;2024-01-27T08:28:41;4.80;79.80
15394;DHT22;7795;47.986;11.868;2024-01-27T08:31:06;4.90;80.00
15394;DHT22;7795;47.986;11.868;2024-01-27T08:33:32;4.90;80.00
15394;DHT22;7795;47.986;11.868;2024-01-27T08:35:58;5.00;80.00
15394;DHT22;7795;47.986;11.868;2024-01-27T08:38:24;5.00;80.00
15394;DHT22;7795;47.986;11.868;2024-01-27T08:40:51;5.10;80.10
15394;DHT22;7795;47.986;11.868;2024-01-27T08:43:16;5.20;80.20
15394;DHT22;7795;47.986;11.868;2024-01-27T08:45:42;5.30;80.20
15394;DHT22;7795;47.986;11.868;2024-01-27T08:48:08;5.30;80.10
15394;DHT22;7795;47.986;11.868;2024-01-27T08:50:35;5.40;80.10
15394;DHT22;7795;47.986;11.868;2024-01-27T08:53:01;5.50;80.10
15394;DHT22;7795;47.986;11.868;2024-01-27T08:55:27;5.60;80.10
15394;DHT22;7795;47.986;11.868;2024-01-27T08:57:55;5.60;79.90
15394;DHT22;7795;47.986;11.868;2024-01-27T09:00:22;5.70;79.80
15394;DHT22;7795;47.986;11.868;2024-01-27T09:02:47;5.80;79.60
15394;DHT22;7795;47.986;11.868;2024-01-27T09:05:13;5.90;79.50
15394;DHT22;7795;47.986;11.868;2024-01-27T09:07:39;6.00;79.20
15394;DHT22;7795;47.986;11.868;2024-01-27T09:10:06;6.10;79.20
15394;DHT22;7795;47.986;11.868;2024-01-27T09:12:32;6.20;79.00
15394;DHT22;7795;47.986;11.868;2024-01-27T09:14:59;6.30;78.80
15394;DHT22;7795;47.986;11.868;2024-01-27T09:17:25;6.30;78.40
15394;DHT22;7795;47.986;11.868;2024-01-27T09:19:51;6.40;78.20
15394;DHT22;7795;47.986;11.868;2024-01-27T09:22:17;6.50;78.00
15394;DHT22;7795;47.986;11.868;2024-01-27T09:24:43;6.60;78.00
15394;DHT22;7795;47.986;11.868;2024-01-27T09:27:09;6.60;77.80
15394;DHT22;7795;47.986;11.868;2024-01-27T09:29:34;6.70;77.60
15394;DHT22;7795;47.986;11.868;2024-01-27T09:32:02;6.80;77.40
15394;DHT22;7795;47.986;11.868;2024-01-27T09:34:27;6.80;77.10
15394;DHT22;7795;47.986;11.868;2024-01-27T09:36:53;6.90;77.20
15394;DHT22;7795;47.986;11.868;2024-01-27T09:39:19;6.90;77.00
15394;DHT22;7795;47.986;11.868;2024-01-27T09:41:45;7.00;76.80
15394;DHT22;7795;47.986;11.868;2024-01-27T09:44:12;7.10;76.70
15394;DHT22;7795;47.986;11.868;2024-01-27T09:46:40;7.10;76.60
15394;DHT22;7795;47.986;11.868;2024-01-27T09:49:09;7.10;76.40
15394;DHT22;7795;47.986;11.868;2024-01-27T09:51:37;7.20;76.30
15394;DHT22;7795;47.986;11.868;2024-01-27T09:54:03;7.30;76.30
15394;DHT22;7795;47.986;11.868;2024-01-27T09:56:28;7.30;76.20
15394;DHT22;7795;47.986;11.868;2024-01-27T09:58:55;7.40;76.90
15394;DHT22;7795;47.986;11.868;2024-01-27T10:01:21;7.40;76.00
15394;DHT22;7795;47.986;11.868;2024-01-27T10:03:49;7.50;76.00
15394;DHT22;7795;47.986;11.868;2024-01-27T10:06:17;7.50;75.80
15394;DHT22;7795;47.986;11.868;2024-01-27T10:08:51;7.60;75.70
15394;DHT22;7795;47.986;11.868;2024-01-27T10:11:19;7.60;75.30
15394;DHT22;7795;47.986;11.868;2024-01-27T10:13:46;7.70;75.40
15394;DHT22;7795;47.986;11.868;2024-01-27T10:16:18;7.70;76.00
15394;DHT22;7795;47.986;11.868;2024-01-27T10:18:44;7.70;75.10
15394;DHT22;7795;47.986;11.868;2024-01-27T10:21:13;7.80;75.00
15394;DHT22;7795;47.986;11.868;2024-01-27T10:23:40;7.80;74.80
15394;DHT22;7795;47.986;11.868;2024-01-27T10:26:09;7.90;74.90
15394;DHT22;7795;47.986;11.868;2024-01-27T10:28:34;7.90;74.80
15394;DHT22;7795;47.986;11.868;2024-01-27T10:31:08;8.00;75.00
15394;DHT22;7795;47.986;11.868;2024-01-27T10:33:34;8.10;74.70
15394;DHT22;7795;47.986;11.868;2024-01-27T10:36:00;8.10;74.70
15394;DHT22;7795;47.986;11.868;2024-01-27T10:38:33;8.20;74.70
15394;DHT22;7795;47.986;11.868;2024-01-27T10:41:01;8.20;74.20
15394;DHT22;7795;47.986;11.868;2024-01-27T10:43:29;8.20;74.40
15394;DHT22;7795;47.986;11.868;2024-01-27T10:45:57;8.30;74.50
15394;DHT22;7795;47.986;11.868;2024-01-27T10:48:23;8.30;74.30
15394;DHT22;7795;47.986;11.868;2024-01-27T10:50:51;8.40;74.20
15394;DHT22;7795;47.986;11.868;2024-01-27T10:53:22;8.50;74.10
15394;DHT22;7795;47.986;11.868;2024-01-27T10:55:50;8.50;73.70
15394;DHT22;7795;47.986;11.868;2024-01-27T10:58:21;8.60;73.80
15394;DHT22;7795;47.986;11.868;2024-01-27T11:00:48;8.60;73.70
15394;DHT22;7795;47.986;11.868;2024-01-27T11:03:17;8.70;73.70
15394;DHT22;7795;47.986;11.868;2024-01-27T11:05:44;8.70;73.30
15394;DHT22;7795;47.986;11.868;2024-01-27T11:08:12;8.80;73.00
15394;DHT22;7795;47.986;11.868;2024-01-27T11:10:38;8.80;72.80
15394;DHT22;7795;47.986;11.868;2024-01-27T11:13:04;8.80;72.80
15394;DHT22;7795;47.986;11.868;2024-01-27T11:15:32;8.80;73.50
15394;DHT22;7795;47.986;11.868;2024-01-27T11:17:58;8.90;72.60
15394;DHT22;7795;47.986;11.868;2024-01-27T11:20:33;8.90;72.50
15394;DHT22;7795;47.986;11.868;2024-01-27T11:23:09;8.90;72.40
15394;DHT22;7795;47.986;11.868;2024-01-27T11:25:34;9.00;71.70
15394;DHT22;7795;47.986;11.868;2024-01-27T11:28:10;9.00;72.00
15394;DHT22;7795;47.986;11.868;2024-01-27T11:30:38;9.00;71.60
15394;DHT22;7795;47.986;11.868;2024-01-27T11:33:06;9.00;72.00
15394;DHT22;7795;47.986;11.868;2024-01-27T11:35:32;9.10;72.20
15394;DHT22;7795;47.986;11.868;2024-01-27T11:37:57;9.10;72.00
15394;DHT22;7795;47.986;11.868;2024-01-27T11:40:23;9.10;71.70
15394;DHT22;7795;47.986;11.868;2024-01-27T11:42:55;9.10;71.60
15394;DHT22;7795;47.986;11.868;2024-01-27T11:45:22;9.20;71.20
15394;DHT22;7795;47.986;11.868;2024-01-27T11:47:49;9.20;71.40
15394;DHT22;7795;47.986;11.868;2024-01-27T11:50:17;9.20;71.40
15394;DHT22;7795;47.986;11.868;2024-01-27T11:52:44;9.20;71.30
15394;DHT22;7795;47.986;11.868;2024-01-27T11:55:09;9.20;71.30
15394;DHT22;7795;47.986;11.868;2024-01-27T11:57:35;9.30;71.20
15394;DHT22;7795;47.986;11.868;2024-01-27T12:00:01;9.30;71.20
15394;DHT22;7795;47.986;11.868;2024-01-27T12:02:27;9.30;71.10
15394;DHT22;7795;47.986;11.868;2024-01-27T12:04:54;9.40;71.00
15394;DHT22;7795;47.986;11.868;2024-01-27T12:07:20;9.40;70.70
15394;DHT22;7795;47.986;11.868;2024-01-27T12:09:48;9.40;70.60
15394;DHT22;7795;47.986;11.868;2024-01-27T12:12:14;9.40;70.50
15394;DHT22;7795;47.986;11.868;2024-01-27T12:14:40;9.50;70.60
15394;DHT22;7795;47.986;11.868;2024-01-27T12:17:08;9.50;70.50
15394;DHT22;7795;47.986;11.868;2024-01-27T12:19:35;9.50;70.20
15394;DHT22;7795;47.986;11.868;2024-01-27T12:22:02;9.50;70.20
15394;DHT22;7795;47.986;11.868;2024-01-27T12:24:28;9.50;69.90
15394;DHT22;7795;47.986;11.868;2024-01-27T12:26:55;9.50;70.00
15394;DHT22;7795;47.986;11.868;2024-01-27T12:29:23;9.60;70.00
15394;DHT22;7795;47.986;11.868;2024-01-27T12:31:48;9.60;70.00
15394;DHT22;7795;47.986;11.868;2024-01-27T12:34:14;9.60;70.00
15394;DHT22;7795;47.986;11.868;2024-01-27T12:36:41;9.60;69.90
15394;DHT22;7795;47.986;11.868;2024-01-27T12:39:09;9.60;69.90
15394;DHT22;7795;47.986;11.868;2024-01-27T12:41:35;9.70;69.60
15394;DHT22;7795;47.986;11.868;2024-01-27T12:44:02;9.70;69.60
15394;DHT22;7795;47.986;11.868;2024-01-27T12:46:28;9.70;69.40
15394;DHT22;7795;47.986;11.868;2024-01-27T12:48:54;9.80;69.50
15394;DHT22;7795;47.986;11.868;2024-01-27T12:51:20;9.80;69.50
15394;DHT22;7795;47.986;11.868;2024-01-27T12:53:46;9.80;69.50
15394;DHT22;7795;47.986;11.868;2024-01-27T12:56:14;9.80;69.40
15394;DHT22;7795;47.986;11.868;2024-01-27T12:58:40;9.90;69.20
15394;DHT22;7795;47.986;11.868;2024-01-27T13:01:08;9.90;69.20
15394;DHT22;7795;47.986;11.868;2024-01-27T13:03:34;9.90;69.10
15394;DHT22;7795;47.986;11.868;2024-01-27T13:06:01;10.00;69.10
15394;DHT22;7795;47.986;11.868;2024-01-27T13:08:27;10.00;69.00
15394;DHT22;7795;47.986;11.868;2024-01-27T13:10:53;10.00;68.70
15394;DHT22;7795;47.986;11.868;2024-01-27T13:13:20;10.00;68.80
15394;DHT22;7795;47.986;11.868;2024-01-27T13:15:46;10.00;68.50
15394;DHT22;7795;47.986;11.868;2024-01-27T13:18:12;10.00;68.50
15394;DHT22;7795;47.986;11.868;2024-01-27T13:20:38;10.00;68.50
15394;DHT22;7795;47.986;11.868;2024-01-27T13:23:05;10.10;68.50
15394;DHT22;7795;47.986;11.868;2024-01-27T13:25:32;10.10;68.20
15394;DHT22;7795;47.986;11.868;2024-01-27T13:27:57;10.10;68.20
15394;DHT22;7795;47.986;11.868;2024-01-27T13:30:24;10.10;68.20
15394;DHT22;7795;47.986;11.868;2024-01-27T13:32:51;10.10;68.10
15394;DHT22;7795;47.986;11.868;2024-01-27T13:35:16;10.10;68.00
15394;DHT22;7795;47.986;11.868;2024-01-27T13:37:42;10.10;68.10
15394;DHT22;7795;47.986;11.868;2024-01-27T13:40:08;10.10;68.10
15394;DHT22;7795;47.986;11.868;2024-01-27T13:42:35;10.20;68.20
15394;DHT22;7795;47.986;11.868;2024-01-27T13:45:01;10.20;68.10
15394;DHT22;7795;47.986;11.868;2024-01-27T13:47:28;10.20;67.20
15394;DHT22;7795;47.986;11.868;2024-01-27T13:49:55;10.20;67.30
15394;DHT22;7795;47.986;11.868;2024-01-27T13:52:21;10.20;67.20
15394;DHT22;7795;47.986;11.868;2024-01-27T13:54:47;10.20;67.50
15394;DHT22;7795;47.986;11.868;2024-01-27T13:57:14;10.20;67.60
15394;DHT22;7795;47.986;11.868;2024-01-27T13:59:40;10.20;67.20
15394;DHT22;7795;47.986;11.868;2024-01-27T14:02:06;10.20;67.20
15394;DHT22;7795;47.986;11.868;2024-01-27T14:04:33;10.20;67.30
15394;DHT22;7795;47.986;11.868;2024-01-27T14:06:59;10.20;67.10
15394;DHT22;7795;47.986;11.868;2024-01-27T14:09:28;10.20;66.80
15394;DHT22;7795;47.986;11.868;2024-01-27T14:11:54;10.20;66.90
15394;DHT22;7795;47.986;11.868;2024-01-27T14:14:20;10.20;66.90
15394;DHT22;7795;47.986;11.868;2024-01-27T14:16:46;10.20;66.80
15394;DHT22;7795;47.986;11.868;2024-01-27T14:19:12;10.20;66.80
15394;DHT22;7795;47.986;11.868;2024-01-27T14:21:39;10.20;66.30
15394;DHT22;7795;47.986;11.868;2024-01-27T14:24:06;10.20;66.20
15394;DHT22;7795;47.986;11.868;2024-01-27T14:26:32;10.10;66.30
15394;DHT22;7795;47.986;11.868;2024-01-27T14:28:58;10.10;66.10
15394;DHT22;7795;47.986;11.868;2024-01-27T14:31:24;10.00;66.20
15394;DHT22;7795;47.986;11.868;2024-01-27T14:33:50;10.00;67.30
15394;DHT22;7795;47.986;11.868;2024-01-27T14:36:16;10.00;66.60
15394;DHT22;7795;47.986;11.868;2024-01-27T14:38:43;10.10;66.60
15394;DHT22;7795;47.986;11.868;2024-01-27T14:41:09;10.00;67.30
15394;DHT22;7795;47.986;11.868;2024-01-27T14:43:37;10.10;66.60
15394;DHT22;7795;47.986;11.868;2024-01-27T14:46:03;10.10;66.50
15394;DHT22;7795;47.986;11.868;2024-01-27T14:48:29;10.00;66.30
15394;DHT22;7795;47.986;11.868;2024-01-27T14:50:56;10.10;66.40
15394;DHT22;7795;47.986;11.868;2024-01-27T14:53:25;10.10;66.20
15394;DHT22;7795;47.986;11.868;2024-01-27T14:55:52;10.10;66.10
15394;DHT22;7795;47.986;11.868;2024-01-27T14:58:18;10.10;66.10
15394;DHT22;7795;47.986;11.868;2024-01-27T15:00:44;10.10;66.40
15394;DHT22;7795;47.986;11.868;2024-01-27T15:03:10;10.10;66.80
15394;DHT22;7795;47.986;11.868;2024-01-27T15:05:37;10.10;66.30
15394;DHT22;7795;47.986;11.868;2024-01-27T15:08:06;10.10;66.30
15394;DHT22;7795;47.986;11.868;2024-01-27T15:10:32;10.10;66.40
15394;DHT22;7795;47.986;11.868;2024-01-27T15:12:59;10.10;66.40
15394;DHT22;7795;47.986;11.868;2024-01-27T15:15:26;10.10;66.40
15394;DHT22;7795;47.986;11.868;2024-01-27T15:17:52;10.10;66.40
15394;DHT22;7795;47.986;11.868;2024-01-27T15:20:21;10.10;66.40
15394;DHT22;7795;47.986;11.868;2024-01-27T15:22:46;10.10;66.50
15394;DHT22;7795;47.986;11.868;2024-01-27T15:25:12;10.10;66.50
15394;DHT22;7795;47.986;11.868;2024-01-27T15:27:38;10.10;66.60
15394;DHT22;7795;47.986;11.868;2024-01-27T15:30:07;10.10;66.60
15394;DHT22;7795;47.986;11.868;2024-01-27T15:32:32;10.00;66.50
15394;DHT22;7795;47.986;11.868;2024-01-27T15:34:58;10.00;66.50
15394;DHT22;7795;47.986;11.868;2024-01-27T15:37:25;10.00;66.50
15394;DHT22;7795;47.986;11.868;2024-01-27T15:39:51;9.90;66.40